createdAt,value
2019-04-11T00:00:35.795Z,5.10
2019-04-11T00:03:05.363Z,5.10
2019-04-11T00:28:01.580Z,5.10
2019-04-11T00:30:30.753Z,4.80
2019-04-11T00:33:00.167Z,4.80
2019-04-11T00:40:26.999Z,4.80
2019-04-11T00:42:56.777Z,4.70
2019-04-11T00:50:23.268Z,4.70
2019-04-11T00:52:52.408Z,4.60
2019-04-11T01:42:35.535Z,4.70
2019-04-11T01:45:05.396Z,4.20
2019-04-11T01:47:53.246Z,4.10
2019-04-11T01:50:25.189Z,4.10
2019-04-11T01:52:54.993Z,4.20
2019-04-11T01:55:24.216Z,4.10
2019-04-11T01:57:54.084Z,4.10
2019-04-11T02:00:48.784Z,4.10
2019-04-11T02:03:21.649Z,4.10
2019-04-11T02:05:51.607Z,4.10
2019-04-11T02:08:20.645Z,4.10
2019-04-11T02:10:50.798Z,4.20
2019-04-11T02:13:19.878Z,4.10
2019-04-11T02:15:48.899Z,4.10
2019-04-11T02:18:17.838Z,4.10
2019-04-11T02:20:47.311Z,4.00
2019-04-11T02:23:21.518Z,3.90
2019-04-11T02:26:09.910Z,3.90
2019-04-11T02:28:39.589Z,3.90
2019-04-11T02:31:10.176Z,3.90
2019-04-11T03:21:14.598Z,3.90
2019-04-11T03:31:50.535Z,3.50
2019-04-11T03:34:30.549Z,3.40
2019-04-11T03:39:05.993Z,3.40
2019-04-11T03:41:31.988Z,3.30
2019-04-11T03:43:58.305Z,3.30
2019-04-11T03:46:35.367Z,3.20
2019-04-11T04:22:29.230Z,3.10
2019-04-11T04:24:58.890Z,3.00
2019-04-11T04:27:30.067Z,2.90
2019-04-11T04:42:38.912Z,2.90
2019-04-11T04:45:04.818Z,2.80
2019-04-11T04:47:42.674Z,2.80
2019-04-11T04:50:06.383Z,2.80
2019-04-11T04:52:36.584Z,2.70
2019-04-11T04:55:06.492Z,2.70
2019-04-11T04:57:37.662Z,2.70
2019-04-11T05:00:07.279Z,2.70
2019-04-11T05:02:37.366Z,2.70
2019-04-11T05:05:06.765Z,2.70
2019-04-11T05:07:40.177Z,2.60
2019-04-11T05:10:08.888Z,2.70
2019-04-11T05:12:38.853Z,2.70
2019-04-11T05:15:08.168Z,2.60
2019-04-11T05:17:38.550Z,2.60
2019-04-11T05:20:09.222Z,2.60
2019-04-11T05:22:39.333Z,2.60
2019-04-11T05:25:08.752Z,2.60
2019-04-11T05:27:38.013Z,2.80
2019-04-11T05:30:08.292Z,2.80
2019-04-11T05:32:39.537Z,2.90
2019-04-11T05:35:08.999Z,3.10
2019-04-11T05:37:39.647Z,3.10
2019-04-11T05:40:09.305Z,3.20
2019-04-11T05:42:38.283Z,3.20
2019-04-11T05:45:15.237Z,3.30
2019-04-11T05:47:39.319Z,3.40
2019-04-11T05:50:28.585Z,3.60
2019-04-11T05:53:01.174Z,3.70
2019-04-11T05:55:32.133Z,3.80
2019-04-11T05:58:05.831Z,3.90
2019-04-11T06:00:39.150Z,4.10
2019-04-11T06:03:10.077Z,4.20
2019-04-11T06:06:04.792Z,4.20
2019-04-11T06:08:34.047Z,4.30
2019-04-11T06:11:20.901Z,4.30
2019-04-11T06:14:07.373Z,4.40
2019-04-11T06:16:44.908Z,4.40
2019-04-11T06:19:25.430Z,4.50
2019-04-11T06:21:58.749Z,4.60
2019-04-11T06:24:45.458Z,4.70
2019-04-11T06:27:38.025Z,4.80
2019-04-11T06:30:42.358Z,4.90
2019-04-11T06:33:18.506Z,5.10
2019-04-11T06:36:13.778Z,5.20
2019-04-11T06:38:49.261Z,5.40
2019-04-11T06:41:36.917Z,5.40
2019-04-11T06:44:43.369Z,5.50
2019-04-11T06:47:34.687Z,5.60
2019-04-11T06:50:28.086Z,5.70
2019-04-11T06:52:58.191Z,6.00
2019-04-11T06:55:45.138Z,6.30
2019-04-11T06:58:25.520Z,6.30
2019-04-11T07:00:59.510Z,6.30
2019-04-11T07:03:32.461Z,6.60
2019-04-11T07:06:07.008Z,6.80
2019-04-11T07:08:44.790Z,7.00
2019-04-11T07:11:15.641Z,7.30
2019-04-11T07:13:55.511Z,7.50
2019-04-11T07:16:25.413Z,7.60
2019-04-11T07:19:32.134Z,7.80
2019-04-11T07:22:01.414Z,7.80
2019-04-11T07:24:49.784Z,8.00
2019-04-11T07:27:20.109Z,7.80
2019-04-11T07:30:09.350Z,7.80
2019-04-11T07:32:38.901Z,7.70
2019-04-11T07:35:30.282Z,8.10
